Time,TemperatureF,DewpointF,PressureIn,WindDirection,WindDirectionDegrees,WindSpeedMPH,WindSpeedGustMPH,Humidity,HourlyPrecipIn,Conditions,Clouds,dailyrainin,SolarRadiationWatts/m^2,SoftwareType,DateUTC
2013-02-19 00:01:00,30.0,30.0,29.81,North,0,0.0,-999.0,99,0.00,,,0.01,2.000000,,2013-02-19 08:01:00,
2013-02-19 00:11:00,30.0,30.0,29.81,North,0,0.0,-999.0,99,0.00,,,0.01,2.000000,,2013-02-19 08:11:00,
2013-02-19 00:42:00,30.0,30.0,29.80,North,0,0.0,-999.0,99,0.00,,,0.01,1.000000,,2013-02-19 08:42:00,
2013-02-19 00:52:00,30.0,30.0,29.80,North,0,0.0,-999.0,99,0.00,,,0.01,1.000000,,2013-02-19 08:52:00,
2013-02-19 01:01:00,30.0,30.0,29.80,North,0,0.0,-999.0,99,0.00,,,0.01,1.000000,,2013-02-19 09:01:00,
2013-02-19 01:11:00,30.0,30.0,29.80,North,0,0.0,-999.0,99,0.00,,,0.01,1.000000,,2013-02-19 09:11:00,
2013-02-19 01:42:00,30.0,30.0,29.82,North,0,0.0,-999.0,99,0.00,,,0.01,1.000000,,2013-02-19 09:42:00,
2013-02-19 01:53:00,30.0,30.0,29.82,North,0,0.0,-999.0,99,0.00,,,0.01,1.000000,,2013-02-19 09:53:00,
2013-02-19 02:01:00,30.0,30.0,29.82,North,0,0.0,-999.0,99,0.00,,,0.01,1.000000,,2013-02-19 10:01:00,
2013-02-19 02:11:00,30.0,30.0,29.82,North,0,0.0,-999.0,99,0.00,,,0.01,1.000000,,2013-02-19 10:11:00,
2013-02-19 02:42:00,30.0,30.0,29.81,North,0,0.0,-999.0,99,0.00,,,0.01,1.000000,,2013-02-19 10:42:00,
2013-02-19 02:52:00,30.0,30.0,29.81,North,0,0.0,-999.0,99,0.00,,,0.01,1.000000,,2013-02-19 10:52:00,
2013-02-19 03:01:00,30.0,30.0,29.81,North,0,0.0,-999.0,99,0.00,,,0.01,1.000000,,2013-02-19 11:01:00,
2013-02-19 03:11:00,30.0,30.0,29.81,North,0,0.0,-999.0,99,0.00,,,0.01,1.000000,,2013-02-19 11:11:00,
2013-02-19 03:42:00,30.0,30.0,29.80,North,0,3.0,-999.0,99,0.00,,,0.01,2.000000,,2013-02-19 11:42:00,
2013-02-19 03:52:00,30.0,30.0,29.80,North,0,3.0,-999.0,99,0.00,,,0.01,2.000000,,2013-02-19 11:52:00,
2013-02-19 04:01:00,30.0,30.0,29.80,North,0,3.0,-999.0,99,0.00,,,0.01,2.000000,,2013-02-19 12:01:00,
2013-02-19 04:12:00,30.0,30.0,29.80,North,0,3.0,-999.0,99,0.00,,,0.01,2.000000,,2013-02-19 12:12:00,
2013-02-19 04:42:00,31.0,31.0,29.79,ENE,69,6.0,-999.0,99,0.00,,,0.01,2.000000,,2013-02-19 12:42:00,
2013-02-19 04:52:00,31.0,31.0,29.79,ENE,69,6.0,-999.0,99,0.00,,,0.01,2.000000,,2013-02-19 12:52:00,
2013-02-19 05:01:00,31.0,31.0,29.79,ENE,69,6.0,-999.0,99,0.00,,,0.01,2.000000,,2013-02-19 13:01:00,
2013-02-19 05:11:00,31.0,31.0,29.79,ENE,69,6.0,-999.0,99,0.00,,,0.01,2.000000,,2013-02-19 13:11:00,
2013-02-19 05:42:00,31.0,31.0,29.79,West,261,14.0,-999.0,99,0.00,,,0.01,2.000000,,2013-02-19 13:42:00,
2013-02-19 05:52:00,31.0,31.0,29.79,West,261,14.0,-999.0,99,0.00,,,0.01,2.000000,,2013-02-19 13:52:00,
2013-02-19 06:01:00,31.0,31.0,29.79,West,261,14.0,-999.0,99,0.00,,,0.01,2.000000,,2013-02-19 14:01:00,
2013-02-19 06:11:00,31.0,31.0,29.79,West,261,14.0,-999.0,99,0.00,,,0.01,2.000000,,2013-02-19 14:11:00,
2013-02-19 06:42:00,32.0,32.0,29.78,North,358,17.0,-999.0,99,0.00,,,0.01,3.000000,,2013-02-19 14:42:00,
2013-02-19 06:52:00,32.0,32.0,29.78,North,358,17.0,-999.0,99,0.00,,,0.01,3.000000,,2013-02-19 14:52:00,
2013-02-19 07:01:00,32.0,32.0,29.78,North,358,17.0,-999.0,99,0.00,,,0.01,3.000000,,2013-02-19 15:01:00,
2013-02-19 07:11:00,32.0,32.0,29.78,North,358,17.0,-999.0,99,0.00,,,0.01,3.000000,,2013-02-19 15:11:00,
2013-02-19 07:42:00,32.0,32.0,29.76,SSW,209,12.0,-999.0,99,0.00,,,0.01,6.000000,,2013-02-19 15:42:00,
2013-02-19 07:52:00,32.0,32.0,29.76,SSW,209,12.0,-999.0,99,0.00,,,0.01,6.000000,,2013-02-19 15:52:00,
2013-02-19 08:01:00,32.0,32.0,29.76,SSW,209,12.0,-999.0,99,0.00,,,0.01,6.000000,,2013-02-19 16:01:00,
2013-02-19 08:11:00,32.0,32.0,29.76,SSW,209,12.0,-999.0,99,0.00,,,0.01,6.000000,,2013-02-19 16:11:00,
2013-02-19 08:42:00,32.0,32.0,29.74,ENE,77,15.0,-999.0,99,0.00,,,-99.99,10.000000,,2013-02-19 16:42:00,
2013-02-19 08:52:00,32.0,32.0,29.74,ENE,77,15.0,-999.0,99,0.00,,,-99.99,10.000000,,2013-02-19 16:52:00,
2013-02-19 09:01:00,32.0,32.0,29.74,ENE,77,15.0,-999.0,99,0.00,,,-99.99,10.000000,,2013-02-19 17:01:00,
2013-02-19 09:11:00,32.0,32.0,29.74,ENE,77,15.0,-999.0,99,0.00,,,-99.99,10.000000,,2013-02-19 17:11:00,
2013-02-19 09:42:00,32.0,32.0,29.71,WNW,283,12.0,-999.0,99,0.00,,,0.01,20.000000,,2013-02-19 17:42:00,
2013-02-19 09:52:00,32.0,32.0,29.71,WNW,283,12.0,-999.0,99,0.00,,,0.01,20.000000,,2013-02-19 17:52:00,
2013-02-19 10:01:00,32.0,32.0,29.71,WNW,283,12.0,-999.0,99,0.00,,,0.01,20.000000,,2013-02-19 18:01:00,
2013-02-19 10:11:00,32.0,32.0,29.71,WNW,283,12.0,-999.0,99,0.00,,,0.01,20.000000,,2013-02-19 18:11:00,
2013-02-19 10:42:00,32.0,32.0,29.70,North,355,6.0,112.0,99,0.00,,,0.01,61.000000,,2013-02-19 18:42:00,
2013-02-19 10:52:00,32.0,32.0,29.70,North,355,6.0,112.0,99,0.00,,,0.01,61.000000,,2013-02-19 18:52:00,
2013-02-19 11:01:00,32.0,32.0,29.70,North,355,6.0,112.0,99,0.00,,,0.01,61.000000,,2013-02-19 19:01:00,
2013-02-19 11:11:00,32.0,32.0,29.70,North,355,6.0,112.0,99,0.00,,,0.01,61.000000,,2013-02-19 19:11:00,
2013-02-19 11:42:00,31.0,31.0,29.70,ENE,67,5.0,-999.0,99,0.01,,,0.02,100.000000,,2013-02-19 19:42:00,
2013-02-19 11:52:00,31.0,31.0,29.70,ENE,67,5.0,-999.0,99,0.01,,,0.02,100.000000,,2013-02-19 19:52:00,
2013-02-19 12:01:00,31.0,31.0,29.70,ENE,67,5.0,-999.0,99,0.01,,,0.02,100.000000,,2013-02-19 20:01:00,
2013-02-19 12:11:00,31.0,31.0,29.70,ENE,67,5.0,-999.0,99,0.01,,,0.02,100.000000,,2013-02-19 20:11:00,
2013-02-19 12:42:00,29.0,29.0,29.67,NNW,329,3.0,-999.0,99,0.00,,,0.02,52.000000,,2013-02-19 20:42:00,
2013-02-19 12:52:00,29.0,29.0,29.67,NNW,329,3.0,-999.0,99,0.00,,,0.02,52.000000,,2013-02-19 20:52:00,
2013-02-19 13:01:00,29.0,29.0,29.67,NNW,329,3.0,-999.0,99,0.00,,,0.02,52.000000,,2013-02-19 21:01:00,
2013-02-19 13:11:00,29.0,29.0,29.67,NNW,329,3.0,-999.0,99,0.00,,,0.02,52.000000,,2013-02-19 21:11:00,
2013-02-19 13:42:00,29.0,29.0,29.65,South,170,9.0,-999.0,99,0.00,,,0.02,153.000000,,2013-02-19 21:42:00,
2013-02-19 13:52:00,29.0,29.0,29.65,South,170,9.0,-999.0,99,0.00,,,0.02,153.000000,,2013-02-19 21:52:00,
2013-02-19 14:01:00,29.0,29.0,29.65,South,170,9.0,-999.0,99,0.00,,,0.02,153.000000,,2013-02-19 22:01:00,
2013-02-19 14:11:00,29.0,29.0,29.65,South,170,9.0,-999.0,99,0.00,,,0.02,153.000000,,2013-02-19 22:11:00,
2013-02-19 14:42:00,27.0,27.0,29.62,West,268,2.0,-999.0,98,0.00,,,-99.99,232.000000,,2013-02-19 22:42:00,
2013-02-19 14:52:00,27.0,27.0,29.62,West,268,2.0,-999.0,98,0.00,,,-99.99,232.000000,,2013-02-19 22:52:00,
2013-02-19 15:01:00,27.0,27.0,29.62,West,268,2.0,-999.0,98,0.00,,,-99.99,232.000000,,2013-02-19 23:01:00,
2013-02-19 15:11:00,27.0,27.0,29.62,West,268,2.0,-999.0,98,0.00,,,-99.99,232.000000,,2013-02-19 23:11:00,
2013-02-19 15:42:00,30.0,29.0,29.63,North,358,1.0,-999.0,98,0.00,,,0.02,158.000000,,2013-02-19 23:42:00,
2013-02-19 15:52:00,30.0,29.0,29.63,North,358,1.0,-999.0,98,0.00,,,0.02,158.000000,,2013-02-19 23:52:00,
2013-02-19 16:01:00,30.0,29.0,29.63,North,358,1.0,-999.0,98,0.00,,,0.02,158.000000,,2013-02-20 00:01:00,
2013-02-19 16:11:00,30.0,29.0,29.63,North,358,1.0,-999.0,98,0.00,,,0.02,158.000000,,2013-02-20 00:11:00,
2013-02-19 16:42:00,29.0,29.0,29.62,WNW,282,3.0,-999.0,98,0.00,,,0.02,304.000000,,2013-02-20 00:42:00,
2013-02-19 16:52:00,29.0,29.0,29.62,WNW,282,3.0,-999.0,98,0.00,,,0.02,304.000000,,2013-02-20 00:52:00,
2013-02-19 17:02:00,29.0,29.0,29.62,WNW,282,3.0,-999.0,98,0.00,,,0.02,304.000000,,2013-02-20 01:02:00,
2013-02-19 17:11:00,29.0,29.0,29.62,WNW,282,3.0,-999.0,98,0.00,,,0.02,304.000000,,2013-02-20 01:11:00,
2013-02-19 17:42:00,29.0,29.0,29.61,NNE,16,10.0,-999.0,98,0.00,,,0.01,188.000000,,2013-02-20 01:42:00,
2013-02-19 17:52:00,29.0,29.0,29.61,NNE,16,10.0,-999.0,98,0.00,,,0.01,188.000000,,2013-02-20 01:52:00,
2013-02-19 18:01:00,29.0,29.0,29.61,NNE,16,10.0,-999.0,98,0.00,,,0.01,188.000000,,2013-02-20 02:01:00,
2013-02-19 18:11:00,29.0,29.0,29.61,NNE,16,10.0,-999.0,98,0.00,,,0.01,188.000000,,2013-02-20 02:11:00,
2013-02-19 18:42:00,28.0,28.0,29.61,SSW,203,3.0,-999.0,98,0.00,,,0.01,126.000000,,2013-02-20 02:42:00,
2013-02-19 18:52:00,28.0,28.0,29.61,SSW,203,3.0,-999.0,98,0.00,,,0.01,126.000000,,2013-02-20 02:52:00,
2013-02-19 19:01:00,28.0,28.0,29.61,SSW,203,3.0,-999.0,98,0.00,,,0.01,126.000000,,2013-02-20 03:01:00,
2013-02-19 19:12:00,28.0,28.0,29.61,SSW,203,3.0,-999.0,98,0.00,,,0.01,126.000000,,2013-02-20 03:12:00,
2013-02-19 19:42:00,28.0,28.0,29.62,WNW,301,2.0,-999.0,98,0.00,,,0.01,16.000000,,2013-02-20 03:42:00,
2013-02-19 19:52:00,28.0,28.0,29.62,WNW,301,2.0,-999.0,98,0.00,,,0.01,16.000000,,2013-02-20 03:52:00,
2013-02-19 20:01:00,28.0,28.0,29.62,WNW,301,2.0,-999.0,98,0.00,,,0.01,16.000000,,2013-02-20 04:01:00,
2013-02-19 20:11:00,28.0,28.0,29.62,WNW,301,2.0,-999.0,98,0.00,,,0.01,16.000000,,2013-02-20 04:11:00,
2013-02-19 20:42:00,27.0,27.0,29.62,North,1,1.0,-999.0,98,0.00,,,0.01,0.000000,,2013-02-20 04:42:00,
2013-02-19 20:52:00,27.0,27.0,29.62,North,1,1.0,-999.0,98,0.00,,,0.01,0.000000,,2013-02-20 04:52:00,
2013-02-19 21:02:00,27.0,27.0,29.62,North,1,1.0,-999.0,98,0.00,,,0.01,0.000000,,2013-02-20 05:02:00,
2013-02-19 21:12:00,27.0,27.0,29.62,North,1,1.0,-999.0,98,0.00,,,0.01,0.000000,,2013-02-20 05:12:00,
2013-02-19 21:43:00,27.0,27.0,29.65,North,0,1.0,-999.0,98,0.00,,,0.01,0.000000,,2013-02-20 05:43:00,
2013-02-19 21:52:00,27.0,27.0,29.65,North,0,1.0,-999.0,98,0.00,,,0.01,0.000000,,2013-02-20 05:52:00,
2013-02-19 22:01:00,27.0,27.0,29.65,North,0,1.0,-999.0,98,0.00,,,0.01,0.000000,,2013-02-20 06:01:00,
2013-02-19 22:11:00,27.0,27.0,29.65,North,0,1.0,-999.0,98,0.00,,,0.01,0.000000,,2013-02-20 06:11:00,
2013-02-19 22:42:00,27.0,27.0,29.65,North,0,0.0,-999.0,98,0.00,,,0.01,0.000000,,2013-02-20 06:42:00,
2013-02-19 22:52:00,27.0,27.0,29.65,North,0,0.0,-999.0,98,0.00,,,0.01,0.000000,,2013-02-20 06:52:00,
2013-02-19 23:01:00,27.0,27.0,29.65,North,0,0.0,-999.0,98,0.00,,,0.01,0.000000,,2013-02-20 07:01:00,
2013-02-19 23:11:00,27.0,27.0,29.65,North,0,0.0,-999.0,98,0.00,,,0.01,0.000000,,2013-02-20 07:11:00,
2013-02-19 23:42:00,27.0,27.0,29.67,North,0,0.0,-999.0,98,0.00,,,0.01,0.000000,,2013-02-20 07:42:00,
2013-02-19 23:52:00,27.0,27.0,29.67,North,0,0.0,-999.0,98,0.00,,,0.01,0.000000,,2013-02-20 07:52:00,